.
WxDataArchive / Data Records for 2011-04-02
2011-04-01 April 2011 2011-04-03

Data Records for Saturday, 02 April 2011

Time	Temp	Chill	HIndex	Humid	Dewpt	 Wind 	HiWind	WindDir	Rain 	Barom 
-----	----	-----	------	-----	-----	------	------	-------	-----	----- 
00:00	39.2	39.2	39.2	93	37.3	0	2	248	0.00	29.638 
00:05	39.2	39.2	39.2	93	37.3	1	2	248	0.00	29.638 
00:10	39.2	39.2	39.2	93	37.3	0	2	248	0.00	29.638 
00:15	39.2	39.2	39.2	93	37.3	1	3	248	0.00	29.636 
00:20	39.2	39.2	39.2	92	37.1	1	3	248	0.00	29.636 
00:25	39.2	39.2	39.2	92	37.1	2	4	248	0.00	29.636 
00:30	39.2	39.2	39.2	92	37.1	2	5	248	0.00	29.632 
00:35	39.2	39.2	39.2	92	37.1	2	4	248	0.00	29.632 
00:40	39.2	39.2	39.2	92	37.1	1	4	248	0.00	29.632 
00:45	39.2	39.2	39.2	92	37.1	2	4	270	0.00	29.631 
00:50	39.2	39.2	39.2	92	37.1	2	5	248	0.00	29.631 
00:55	39.2	39.2	39.2	91	36.8	2	6	248	0.00	29.631 
01:00	39.2	39.2	39.2	91	36.8	2	5	292	0.00	29.630 
01:05	39.2	39.2	39.2	91	36.8	1	3	292	0.00	29.630 
01:10	39.3	39.3	39.3	90	36.6	1	4	292	0.00	29.630 
01:15	39.2	39.2	39.2	90	36.5	2	5	248	0.00	29.631 
01:20	39.2	39.2	39.2	89	36.2	2	4	270	0.00	29.631 
01:25	39.1	39.1	39.1	88	35.9	2	5	270	0.00	29.631 
01:30	39.1	39.1	39.1	87	35.6	2	4	270	0.00	29.632 
01:35	38.9	38.9	38.9	85	34.8	1	3	270	0.00	29.632 
01:40	38.9	38.9	38.9	84	34.5	1	4	270	0.00	29.632 
01:45	38.9	38.9	38.9	84	34.5	2	4	270	0.00	29.635 
01:50	38.9	38.9	38.9	83	34.2	2	6	315	0.00	29.635 
01:55	38.9	38.9	38.9	83	34.2	1	4	315	0.00	29.635 
02:00	38.9	38.9	38.9	82	33.9	1	3	270	0.00	29.636 
02:05	38.9	38.9	38.9	82	33.9	1	4	270	0.00	29.636 
02:10	38.8	38.8	38.8	82	33.8	1	4	270	0.00	29.636 
02:15	38.8	38.8	38.8	83	34.1	1	4	270	0.00	29.637 
02:20	38.8	38.8	38.8	83	34.1	1	4	315	0.00	29.637 
02:25	38.8	38.8	38.8	83	34.1	1	3	338	0.00	29.637 
02:30	38.8	38.8	38.8	83	34.1	0	2	270	0.00	29.638 
02:35	38.8	38.8	38.8	83	34.1	1	3	315	0.00	29.638 
02:40	38.6	38.6	38.6	84	34.2	1	3	315	0.00	29.638 
02:45	38.6	38.6	38.6	84	34.2	1	4	315	0.00	29.637 
02:50	38.6	38.6	38.6	84	34.2	0	1	315	0.00	29.637 
02:55	38.6	38.6	38.6	84	34.2	0	2	315	0.00	29.637 
03:00	38.6	38.6	38.6	84	34.2	1	4	315	0.00	29.635 
03:05	38.6	38.6	38.6	84	34.2	2	4	270	0.00	29.635 
03:10	38.5	38.5	38.5	84	34.1	2	5	270	0.00	29.635 
03:15	38.5	38.5	38.5	85	34.4	2	4	270	0.00	29.634 
03:20	38.5	38.5	38.5	85	34.4	1	3	292	0.00	29.634 
03:25	38.3	38.3	38.3	86	34.5	2	5	315	0.00	29.634 
03:30	38.2	38.2	38.2	86	34.4	2	5	270	0.00	29.636 
03:35	38.0	38.0	38.0	87	34.5	2	9	270	0.00	29.636 
03:40	37.8	37.8	37.8	87	34.3	2	4	315	0.00	29.636 
03:45	37.6	37.6	37.6	88	34.4	1	3	270	0.01	29.638 
03:50	37.6	37.6	37.6	88	34.4	1	3	270	0.00	29.638 
03:55	37.6	37.6	37.6	88	34.4	1	4	315	0.00	29.638 
04:00	37.6	37.6	37.6	89	34.7	1	3	292	0.00	29.640 
04:05	37.6	37.6	37.6	89	34.7	1	3	292	0.00	29.640 
04:10	37.5	37.5	37.5	89	34.6	2	3	270	0.00	29.640 
04:15	37.3	37.3	37.3	89	34.4	1	4	248	0.00	29.645 
04:20	37.3	37.3	37.3	90	34.6	1	4	248	0.00	29.645 
04:25	37.2	37.2	37.2	90	34.5	1	3	248	0.01	29.645 
04:30	37.2	37.2	37.2	90	34.5	1	3	270	0.00	29.650 
04:35	37.2	37.2	37.2	90	34.5	1	3	270	0.00	29.650 
04:40	37.2	37.2	37.2	91	34.8	1	3	338	0.00	29.650 
04:45	37.0	37.0	37.0	91	34.6	0	2	315	0.01	29.654 
04:50	37.0	37.0	37.0	91	34.6	1	3	315	0.00	29.654 
04:55	36.9	36.9	36.9	91	34.5	1	3	315	0.00	29.654 
05:00	36.8	36.8	36.8	91	34.4	1	3	338	0.01	29.657 
05:05	36.8	36.8	36.8	91	34.4	0	2	315	0.00	29.657 
05:10	36.6	36.6	36.6	91	34.2	1	4	315	0.00	29.657 
05:15	36.6	36.6	36.6	92	34.5	1	2	315	0.01	29.662 
05:20	36.6	36.6	36.6	92	34.5	1	4	248	0.00	29.662 
05:25	36.6	36.6	36.6	92	34.5	1	3	0	0.00	29.662 
05:30	36.6	36.6	36.6	92	34.5	0	2	338	0.00	29.661 
05:35	36.6	36.6	36.6	92	34.5	1	2	338	0.00	29.661 
05:40	36.8	36.8	36.8	92	34.7	1	2	338	0.00	29.661 
05:45	36.8	36.8	36.8	92	34.7	0	1	338	0.00	29.666 
05:50	36.9	36.9	36.9	92	34.8	0	2	338	0.00	29.666 
05:55	36.9	36.9	36.9	93	35.1	1	2	338	0.00	29.666 
06:00	37.0	37.0	37.0	93	35.2	0	2	338	0.00	29.671 
06:05	37.0	37.0	37.0	93	35.2	1	2	338	0.00	29.671 
06:10	37.0	37.0	37.0	93	35.2	1	4	270	0.00	29.671 
06:15	37.0	37.0	37.0	93	35.2	0	2	270	0.00	29.677 
06:20	37.0	37.0	37.0	93	35.2	1	2	270	0.00	29.677 
06:25	37.2	37.2	37.2	93	35.4	1	3	270	0.00	29.677 
06:30	37.2	37.2	37.2	93	35.4	0	1	270	0.00	29.683 
06:35	37.2	37.2	37.2	93	35.4	1	3	270	0.00	29.683 
06:40	37.2	37.2	37.2	93	35.4	0	2	270	0.00	29.683 
06:45	37.3	37.3	37.3	93	35.5	1	3	315	0.00	29.688 
06:50	37.3	37.3	37.3	93	35.5	0	2	315	0.00	29.688 
06:55	37.3	37.3	37.3	93	35.5	0	2	315	0.00	29.688 
07:00	37.3	37.3	37.3	93	35.5	0	2	315	0.00	29.692 
07:05	37.3	37.3	37.3	93	35.5	1	3	315	0.00	29.692 
07:10	37.3	37.3	37.3	92	35.2	1	2	292	0.00	29.692 
07:15	37.3	37.3	37.3	92	35.2	1	3	292	0.00	29.702 
07:20	37.3	37.3	37.3	92	35.2	0	2	292	0.00	29.702 
07:25	37.5	37.5	37.5	92	35.4	1	5	315	0.00	29.702 
07:30	37.5	37.5	37.5	92	35.4	1	3	248	0.00	29.709 
07:35	37.6	37.6	37.6	92	35.5	1	2	248	0.00	29.709 
07:40	37.6	37.6	37.6	92	35.5	0	2	248	0.00	29.709 
07:45	37.6	37.6	37.6	92	35.5	1	2	292	0.00	29.713 
07:50	37.6	37.6	37.6	92	35.5	1	3	292	0.00	29.713 
07:55	37.6	37.6	37.6	92	35.5	1	4	292	0.00	29.713 
08:00	37.5	37.5	37.5	91	35.1	2	4	270	0.00	29.723 
08:05	37.5	37.5	37.5	91	35.1	2	3	270	0.00	29.723 
08:10	37.5	37.5	37.5	91	35.1	2	5	270	0.00	29.723 
08:15	37.5	37.5	37.5	91	35.1	1	3	270	0.00	29.728 
08:20	37.5	37.5	37.5	91	35.1	1	3	270	0.00	29.728 
08:25	37.5	37.5	37.5	91	35.1	1	3	248	0.00	29.728 
08:30	37.5	37.5	37.5	91	35.1	1	4	270	0.00	29.733 
08:35	37.6	37.6	37.6	91	35.2	1	3	270	0.00	29.733 
08:40	37.6	37.6	37.6	90	34.9	1	4	292	0.00	29.733 
08:45	37.6	37.6	37.6	90	34.9	1	4	270	0.00	29.744 
08:50	37.8	37.8	37.8	90	35.1	1	4	338	0.00	29.744 
08:55	37.8	37.8	37.8	90	35.1	2	3	0	0.00	29.744 
09:00	37.8	37.8	37.8	90	35.1	1	3	270	0.00	29.752 
09:05	37.9	37.9	37.9	90	35.2	2	5	292	0.00	29.752 
09:10	37.9	37.9	37.9	90	35.2	2	4	270	0.00	29.752 
09:15	38.0	38.0	38.0	89	35.1	2	4	338	0.00	29.757 
09:20	38.3	38.3	38.3	89	35.3	2	4	315	0.00	29.757 
09:25	38.5	38.5	38.5	88	35.3	1	3	315	0.00	29.757 
09:30	38.8	38.8	38.8	88	35.6	1	4	338	0.00	29.760 
09:35	38.8	38.8	38.8	87	35.3	2	6	270	0.00	29.760 
09:40	39.1	39.1	39.1	86	35.3	2	4	315	0.00	29.760 
09:45	39.2	39.2	39.2	86	35.4	2	3	248	0.00	29.767 
09:50	39.5	39.5	39.5	86	35.7	2	3	248	0.00	29.767 
09:55	39.6	39.6	39.6	85	35.5	2	5	270	0.00	29.767 
10:00	39.9	39.9	39.9	85	35.8	1	4	270	0.00	29.772 
10:05	40.1	40.1	40.1	85	36.0	2	5	270	0.00	29.772 
10:10	40.5	40.5	40.5	85	36.4	1	4	248	0.00	29.772 
10:15	40.8	40.8	40.8	84	36.3	1	2	248	0.00	29.773 
10:20	40.6	40.6	40.6	83	35.8	1	3	315	0.00	29.773 
10:25	40.3	40.3	40.3	82	35.2	1	4	315	0.00	29.773 
10:30	40.2	40.2	40.2	82	35.2	2	4	270	0.00	29.787 
10:35	40.3	40.3	40.3	82	35.2	2	4	248	0.00	29.787 
10:40	41.1	41.1	41.1	81	35.7	2	5	270	0.00	29.787 
10:45	41.3	41.3	41.3	79	35.3	2	5	315	0.00	29.787 
10:50	41.5	41.5	41.5	77	34.8	2	4	292	0.00	29.787 
10:55	41.5	41.5	41.5	75	34.2	2	7	315	0.00	29.787 
11:00	41.5	41.5	41.5	75	34.2	3	5	270	0.00	29.792 
11:05	41.5	41.5	41.5	74	33.8	2	4	270	0.00	29.792 
11:10	41.9	41.9	41.9	75	34.6	2	6	270	0.00	29.792 
11:15	41.9	41.9	41.9	71	33.2	2	5	338	0.00	29.801 
11:20	42.6	42.6	42.6	73	34.6	1	3	338	0.00	29.801 
11:25	43.1	43.1	43.1	70	34.0	2	4	338	0.00	29.801 
11:30	43.6	43.6	43.6	71	34.8	2	4	248	0.00	29.801 
11:35	43.5	43.5	43.5	67	33.3	2	5	248	0.00	29.801 
11:40	43.3	43.3	43.3	67	33.1	2	6	270	0.00	29.801 
11:45	42.9	42.9	42.9	66	32.3	3	7	270	0.00	29.807 
11:50	42.9	42.9	42.9	67	32.7	2	4	270	0.00	29.807 
11:55	43.2	43.2	43.2	67	33.0	2	5	292	0.00	29.807 
12:00	43.3	43.3	43.3	66	32.7	2	6	248	0.00	29.814 
12:05	43.2	43.2	43.2	67	33.0	2	5	270	0.00	29.814 
12:10	43.2	43.2	43.2	68	33.4	2	5	270	0.00	29.814 
12:15	43.1	43.1	43.1	67	32.9	2	4	315	0.00	29.817 
12:20	42.9	42.9	42.9	68	33.1	3	6	270	0.00	29.817 
12:25	42.8	42.8	42.8	69	33.3	2	5	270	0.00	29.817 
12:30	42.8	42.8	42.8	69	33.3	2	5	270	0.00	29.822 
12:35	42.8	42.8	42.8	68	33.0	3	7	270	0.00	29.822 
12:40	42.8	42.8	42.8	69	33.3	2	4	270	0.00	29.822 
12:45	43.2	43.2	43.2	69	33.7	3	9	292	0.00	29.829 
12:50	43.8	41.7	43.8	65	32.8	4	7	270	0.00	29.829 
12:55	43.8	41.7	43.8	64	32.4	4	7	270	0.00	29.829 
13:00	43.8	41.7	43.8	64	32.4	4	9	292	0.00	29.831 
13:05	44.1	44.1	44.1	65	33.1	2	4	338	0.00	29.831 
13:10	44.6	44.6	44.6	64	33.2	3	6	270	0.00	29.831 
13:15	45.2	45.2	45.2	62	33.0	3	7	270	0.00	29.828 
13:20	45.5	45.5	45.5	61	32.8	3	6	315	0.00	29.828 
13:25	45.4	45.4	45.4	61	32.7	3	6	315	0.00	29.828 
13:30	45.7	45.7	45.7	61	33.0	3	6	315	0.00	29.829 
13:35	45.7	45.7	45.7	61	33.0	2	5	270	0.00	29.829 
13:40	46.0	46.0	46.0	61	33.3	2	5	315	0.00	29.829 
13:45	46.0	46.0	46.0	62	33.7	2	5	248	0.00	29.829 
13:50	46.0	46.0	46.0	60	32.9	2	4	270	0.00	29.829 
13:55	46.0	46.0	46.0	59	32.5	2	6	270	0.00	29.829 
14:00	46.1	46.1	46.1	59	32.6	2	4	248	0.00	29.830 
14:05	46.4	46.4	46.4	59	32.9	2	4	338	0.00	29.830 
14:10	46.7	46.7	46.7	60	33.6	3	10	270	0.00	29.830 
14:15	47.3	45.8	47.3	61	34.5	4	10	270	0.00	29.829 
14:20	47.4	47.4	47.4	59	33.8	3	6	270	0.00	29.829 
14:25	47.0	47.0	47.0	58	33.0	3	7	338	0.00	29.829 
14:30	47.4	47.4	47.4	59	33.8	3	5	338	0.00	29.830 
14:35	47.7	47.7	47.7	59	34.1	3	9	270	0.00	29.830 
14:40	47.7	47.7	47.7	59	34.1	3	6	248	0.00	29.830 
14:45	47.3	45.8	47.3	57	32.8	4	7	270	0.00	29.831 
14:50	46.7	45.1	46.7	58	32.7	4	7	270	0.00	29.831 
14:55	46.5	44.8	46.5	59	33.0	4	10	270	0.00	29.831 
15:00	46.7	45.1	46.7	59	33.1	4	9	270	0.00	29.833 
15:05	47.0	47.0	47.0	58	33.0	2	6	270	0.00	29.833 
15:10	47.1	47.1	47.1	58	33.1	3	6	270	0.00	29.833 
15:15	47.3	45.8	47.3	56	32.4	4	7	270	0.00	29.839 
15:20	47.4	47.4	47.4	58	33.4	2	5	270	0.00	29.839 
15:25	47.3	47.3	47.3	55	32.0	3	10	270	0.00	29.839 
15:30	46.8	46.8	46.8	56	31.9	3	5	270	0.00	29.844 
15:35	46.8	46.8	46.8	56	31.9	3	5	292	0.00	29.844 
15:40	46.8	46.8	46.8	57	32.4	3	9	292	0.00	29.844 
15:45	47.0	47.0	47.0	58	33.0	2	5	248	0.00	29.846 
15:50	47.0	47.0	47.0	58	33.0	3	6	270	0.00	29.846 
15:55	46.7	45.1	46.7	57	32.3	4	7	270	0.00	29.846 
16:00	47.0	47.0	47.0	58	33.0	3	6	270	0.00	29.846 
16:05	47.6	47.6	47.6	57	33.1	3	7	270	0.00	29.846 
16:10	48.0	48.0	48.0	54	32.2	3	7	315	0.00	29.846 
16:15	48.0	46.6	48.0	53	31.7	4	13	270	0.00	29.848 
16:20	48.2	46.8	48.2	54	32.3	4	7	270	0.00	29.848 
16:25	48.3	48.3	48.3	53	32.0	3	6	270	0.00	29.848 
16:30	48.2	46.8	48.2	54	32.3	4	7	315	0.00	29.851 
16:35	47.4	47.4	47.4	54	31.6	3	7	338	0.00	29.851 
16:40	47.3	47.3	47.3	54	31.5	3	9	315	0.00	29.851 
16:45	47.3	45.8	47.3	51	30.1	4	7	338	0.00	29.860 
16:50	47.7	47.7	47.7	53	31.4	2	6	292	0.00	29.860 
16:55	48.5	48.5	48.5	50	30.7	3	9	270	0.00	29.860 
17:00	48.6	47.3	48.6	50	30.8	4	9	338	0.00	29.861 
17:05	48.8	48.8	48.8	51	31.5	2	4	315	0.00	29.861 
17:10	48.8	48.8	48.8	51	31.5	3	9	270	0.00	29.861 
17:15	49.1	47.8	49.1	47	29.7	4	11	270	0.00	29.862 
17:20	48.8	48.8	48.8	47	29.5	3	7	270	0.00	29.862 
17:25	48.0	48.0	48.0	50	30.3	3	6	270	0.00	29.862 
17:30	47.6	47.6	47.6	51	30.4	2	5	292	0.00	29.875 
17:35	47.3	47.3	47.3	52	30.6	3	10	338	0.00	29.875 
17:40	47.0	47.0	47.0	54	31.2	2	5	315	0.00	29.875 
17:45	46.8	46.8	46.8	53	30.6	2	5	270	0.00	29.880 
17:50	47.1	45.5	47.1	52	30.4	4	10	270	0.00	29.880 
17:55	47.4	47.4	47.4	53	31.1	3	5	270	0.00	29.880 
18:00	47.7	47.7	47.7	52	30.9	3	7	270	0.00	29.889 
18:05	47.7	47.7	47.7	51	30.5	3	6	338	0.00	29.889 
18:10	48.0	48.0	48.0	52	31.2	3	6	270	0.00	29.889 
18:15	48.0	48.0	48.0	51	30.7	3	7	315	0.00	29.887 
18:20	48.3	48.3	48.3	51	31.0	2	6	338	0.00	29.887 
18:25	48.6	48.6	48.6	51	31.3	1	4	338	0.00	29.887 
18:30	48.8	48.8	48.8	50	31.0	3	9	270	0.00	29.893 
18:35	48.6	48.6	48.6	50	30.8	3	5	270	0.00	29.893 
18:40	48.2	48.2	48.2	52	31.4	3	10	270	0.00	29.893 
18:45	47.1	47.1	47.1	54	31.3	2	9	292	0.00	29.907 
18:50	46.5	46.5	46.5	57	32.1	1	7	270	0.00	29.907 
18:55	46.2	46.2	46.2	58	32.2	2	5	270	0.00	29.907 
19:00	46.2	46.2	46.2	57	31.8	2	6	270	0.00	29.917 
19:05	46.4	46.4	46.4	56	31.6	3	6	315	0.00	29.917 
19:10	46.5	46.5	46.5	56	31.7	1	6	315	0.00	29.917 
19:15	46.5	46.5	46.5	56	31.7	1	5	292	0.00	29.923 
19:20	46.4	46.4	46.4	56	31.6	1	4	248	0.00	29.923 
19:25	46.1	46.1	46.1	56	31.3	1	3	315	0.00	29.923 
19:30	45.7	45.7	45.7	55	30.5	2	5	270	0.00	29.928 
19:35	45.4	45.4	45.4	54	29.7	2	5	270	0.00	29.928 
19:40	45.2	45.2	45.2	55	30.0	2	5	248	0.00	29.928 
19:45	45.1	45.1	45.1	54	29.5	2	5	338	0.00	29.931 
19:50	44.9	44.9	44.9	54	29.3	1	3	338	0.00	29.931 
19:55	44.6	44.6	44.6	55	29.4	1	3	292	0.00	29.931 
20:00	44.5	44.5	44.5	55	29.3	1	5	338	0.00	29.940 
20:05	44.2	44.2	44.2	55	29.1	1	4	292	0.00	29.940 
20:10	44.1	44.1	44.1	56	29.4	0	2	315	0.00	29.940 
20:15	43.8	43.8	43.8	56	29.1	1	3	270	0.00	29.943 
20:20	43.5	43.5	43.5	57	29.3	0	2	270	0.00	29.943 
20:25	43.2	43.2	43.2	57	29.0	0	2	270	0.00	29.943 
20:30	42.9	42.9	42.9	58	29.2	0	2	270	0.00	29.947 
20:35	42.8	42.8	42.8	58	29.1	0	1	270	0.00	29.947 
20:40	42.5	42.5	42.5	58	28.8	0	1	270	0.00	29.947 
20:45	42.2	42.2	42.2	59	28.9	0	1	270	0.00	29.955 
20:50	41.9	41.9	41.9	60	29.0	0	1	270	0.00	29.955 
20:55	41.8	41.8	41.8	60	28.9	0	2	270	0.00	29.955 
21:00	41.6	41.6	41.6	60	28.8	0	1	270	0.00	29.962 
21:05	41.5	41.5	41.5	60	28.7	0	0	---	0.00	29.962 
21:10	41.2	41.2	41.2	61	28.8	0	0	---	0.00	29.962 
21:15	40.9	40.9	40.9	61	28.5	0	0	---	0.00	29.962 
21:20	40.5	40.5	40.5	62	28.5	0	0	---	0.00	29.962 
21:25	40.2	40.2	40.2	62	28.2	0	0	---	0.00	29.962 
21:30	39.8	39.8	39.8	63	28.2	0	0	---	0.00	29.969 
21:35	39.3	39.3	39.3	64	28.2	0	0	---	0.00	29.969 
21:40	38.9	38.9	38.9	64	27.8	0	0	---	0.00	29.969 
21:45	38.5	38.5	38.5	65	27.8	0	0	---	0.00	29.978 
21:50	38.0	38.0	38.0	66	27.7	0	0	---	0.00	29.978 
21:55	37.6	37.6	37.6	67	27.7	0	0	---	0.00	29.978 
22:00	37.3	37.3	37.3	68	27.7	0	0	---	0.00	29.986 
22:05	36.9	36.9	36.9	69	27.7	0	0	---	0.00	29.986 
22:10	36.5	36.5	36.5	70	27.7	0	0	---	0.00	29.986 
22:15	36.2	36.2	36.2	70	27.4	0	0	---	0.00	29.994 
22:20	35.8	35.8	35.8	71	27.3	0	0	---	0.00	29.994 
22:25	35.5	35.5	35.5	72	27.4	0	0	---	0.00	29.994 
22:30	35.0	35.0	35.0	72	26.9	0	0	---	0.00	29.997 
22:35	34.7	34.7	34.7	73	26.9	0	0	---	0.00	29.997 
22:40	34.6	34.6	34.6	74	27.2	0	0	---	0.00	29.997 
22:45	34.3	34.3	34.3	75	27.2	0	0	---	0.00	29.995 
22:50	34.0	34.0	34.0	76	27.2	0	0	---	0.00	29.995 
22:55	33.7	33.7	33.7	76	27.0	0	0	---	0.00	29.995 
23:00	33.5	33.5	33.5	77	27.1	0	0	---	0.00	29.996 
23:05	33.2	33.2	33.2	77	26.8	0	0	---	0.00	29.996 
23:10	33.1	33.1	33.1	78	27.0	0	0	---	0.00	29.996 
23:15	32.9	32.9	32.9	78	26.8	0	0	---	0.00	29.998 
23:20	32.8	32.8	32.8	79	27.0	0	0	---	0.00	29.998 
23:25	32.7	32.7	32.7	79	26.9	0	0	---	0.00	29.998 
23:30	32.5	32.5	32.5	79	26.7	0	0	---	0.00	30.000 
23:35	32.4	32.4	32.4	80	26.9	0	0	---	0.00	30.000 
23:40	32.1	32.1	32.1	80	26.6	0	0	---	0.00	30.000 
23:45	31.9	31.9	31.9	80	26.4	0	0	---	0.00	30.008 
23:50	31.8	31.8	31.8	81	26.6	0	0	---	0.00	30.008 
23:55	31.6	31.6	31.6	81	26.5	0	0	---	0.00	30.008 

CoCoRaHS
IN-AL-39
A2 Web Hosting
Creative Commons License
GoDaddy
search engine by freefind advanced

loaded 2018-11-20 02:25:43 • last modified 2010-11-18 10:43:29
Privacy PolicyDisclaimer
• wx.awcolley.com is powered by PmWiki v.2002016 •
• all content (unless otherwise noted) © 2018 A W Colley